sensor_id;sensor_type;location;lat;lon;timestamp;temperature;humidity
12434;DHT22;6281;49.038;8.372;2022-11-20T00:00:19;5.80;99.90
12434;DHT22;6281;49.038;8.372;2022-11-20T00:02:46;5.70;99.90
12434;DHT22;6281;49.038;8.372;2022-11-20T00:05:13;5.80;99.90
12434;DHT22;6281;49.038;8.372;2022-11-20T00:07:40;5.70;99.90
12434;DHT22;6281;49.038;8.372;2022-11-20T00:10:07;5.70;99.90
12434;DHT22;6281;49.038;8.372;2022-11-20T00:12:39;5.70;99.90
12434;DHT22;6281;49.038;8.372;2022-11-20T00:15:07;5.70;99.90
12434;DHT22;6281;49.038;8.372;2022-11-20T00:17:35;5.60;99.90
12434;DHT22;6281;49.038;8.372;2022-11-20T00:20:02;5.50;99.90
12434;DHT22;6281;49.038;8.372;2022-11-20T00:22:29;5.70;99.90
12434;DHT22;6281;49.038;8.372;2022-11-20T00:24:56;5.60;99.90
12434;DHT22;6281;49.038;8.372;2022-11-20T00:27:24;5.70;99.90
12434;DHT22;6281;49.038;8.372;2022-11-20T00:29:52;5.70;99.90
12434;DHT22;6281;49.038;8.372;2022-11-20T00:32:19;5.90;99.90
12434;DHT22;6281;49.038;8.372;2022-11-20T00:34:46;5.40;99.90
12434;DHT22;6281;49.038;8.372;2022-11-20T00:37:13;5.10;99.90
12434;DHT22;6281;49.038;8.372;2022-11-20T00:39:39;5.40;99.90
12434;DHT22;6281;49.038;8.372;2022-11-20T00:42:07;5.00;99.90
12434;DHT22;6281;49.038;8.372;2022-11-20T00:44:33;5.40;99.90
12434;DHT22;6281;49.038;8.372;2022-11-20T00:47:02;5.70;99.90
12434;DHT22;6281;49.038;8.372;2022-11-20T00:49:32;5.70;99.90
12434;DHT22;6281;49.038;8.372;2022-11-20T00:51:58;5.80;99.90
12434;DHT22;6281;49.038;8.372;2022-11-20T00:54:25;5.60;99.90
12434;DHT22;6281;49.038;8.372;2022-11-20T00:56:53;5.60;99.90
12434;DHT22;6281;49.038;8.372;2022-11-20T00:59:21;5.30;99.90
12434;DHT22;6281;49.038;8.372;2022-11-20T01:01:48;5.60;99.90
12434;DHT22;6281;49.038;8.372;2022-11-20T01:04:16;5.60;99.90
12434;DHT22;6281;49.038;8.372;2022-11-20T01:06:43;5.60;99.90
12434;DHT22;6281;49.038;8.372;2022-11-20T01:09:12;5.50;99.90
12434;DHT22;6281;49.038;8.372;2022-11-20T01:11:41;5.60;99.90
12434;DHT22;6281;49.038;8.372;2022-11-20T01:14:11;5.60;99.90
12434;DHT22;6281;49.038;8.372;2022-11-20T01:16:40;5.70;99.90
12434;DHT22;6281;49.038;8.372;2022-11-20T01:19:11;5.70;99.90
12434;DHT22;6281;49.038;8.372;2022-11-20T01:21:40;5.60;99.90
12434;DHT22;6281;49.038;8.372;2022-11-20T01:24:10;5.90;99.90
12434;DHT22;6281;49.038;8.372;2022-11-20T01:26:39;5.90;99.90
12434;DHT22;6281;49.038;8.372;2022-11-20T01:29:07;5.80;99.90
12434;DHT22;6281;49.038;8.372;2022-11-20T01:31:36;5.50;99.90
12434;DHT22;6281;49.038;8.372;2022-11-20T01:34:05;5.60;99.90
12434;DHT22;6281;49.038;8.372;2022-11-20T01:36:33;5.50;99.90
12434;DHT22;6281;49.038;8.372;2022-11-20T01:39:05;5.50;99.90
12434;DHT22;6281;49.038;8.372;2022-11-20T01:41:33;5.60;99.90
12434;DHT22;6281;49.038;8.372;2022-11-20T01:44:20;5.70;99.90
12434;DHT22;6281;49.038;8.372;2022-11-20T01:46:52;6.00;99.90
12434;DHT22;6281;49.038;8.372;2022-11-20T01:49:24;6.10;99.90
12434;DHT22;6281;49.038;8.372;2022-11-20T01:51:54;5.80;99.90
12434;DHT22;6281;49.038;8.372;2022-11-20T01:54:27;5.80;99.90
12434;DHT22;6281;49.038;8.372;2022-11-20T01:56:57;5.90;99.90
12434;DHT22;6281;49.038;8.372;2022-11-20T01:59:26;5.80;99.90
12434;DHT22;6281;49.038;8.372;2022-11-20T02:01:55;5.80;99.90
12434;DHT22;6281;49.038;8.372;2022-11-20T02:04:23;5.90;99.90
12434;DHT22;6281;49.038;8.372;2022-11-20T02:06:53;6.00;99.90
12434;DHT22;6281;49.038;8.372;2022-11-20T02:09:24;6.20;99.90
12434;DHT22;6281;49.038;8.372;2022-11-20T02:11:52;6.30;99.90
12434;DHT22;6281;49.038;8.372;2022-11-20T02:14:19;6.40;99.90
12434;DHT22;6281;49.038;8.372;2022-11-20T02:16:46;6.40;99.90
12434;DHT22;6281;49.038;8.372;2022-11-20T02:19:20;6.40;99.90
12434;DHT22;6281;49.038;8.372;2022-11-20T02:21:55;6.30;99.90
12434;DHT22;6281;49.038;8.372;2022-11-20T02:24:24;6.30;99.90
12434;DHT22;6281;49.038;8.372;2022-11-20T02:26:53;6.40;99.90
12434;DHT22;6281;49.038;8.372;2022-11-20T02:29:25;6.50;99.90
12434;DHT22;6281;49.038;8.372;2022-11-20T02:31:55;6.60;99.90
12434;DHT22;6281;49.038;8.372;2022-11-20T02:34:22;6.60;99.90
12434;DHT22;6281;49.038;8.372;2022-11-20T02:36:49;6.60;99.90
12434;DHT22;6281;49.038;8.372;2022-11-20T02:39:17;6.70;99.90
12434;DHT22;6281;49.038;8.372;2022-11-20T02:41:47;6.80;99.90
12434;DHT22;6281;49.038;8.372;2022-11-20T02:44:14;6.80;99.90
12434;DHT22;6281;49.038;8.372;2022-11-20T02:46:41;6.80;99.90
12434;DHT22;6281;49.038;8.372;2022-11-20T02:49:07;7.00;99.90
12434;DHT22;6281;49.038;8.372;2022-11-20T02:51:34;6.90;99.90
12434;DHT22;6281;49.038;8.372;2022-11-20T02:54:01;7.00;99.90
12434;DHT22;6281;49.038;8.372;2022-11-20T02:56:28;7.00;99.90
12434;DHT22;6281;49.038;8.372;2022-11-20T02:58:57;7.10;99.90
12434;DHT22;6281;49.038;8.372;2022-11-20T03:01:24;7.10;99.90
12434;DHT22;6281;49.038;8.372;2022-11-20T03:03:51;7.20;99.90
12434;DHT22;6281;49.038;8.372;2022-11-20T03:06:19;7.20;99.90
12434;DHT22;6281;49.038;8.372;2022-11-20T03:08:46;7.20;99.90
12434;DHT22;6281;49.038;8.372;2022-11-20T03:11:13;7.20;99.90
12434;DHT22;6281;49.038;8.372;2022-11-20T03:13:40;7.30;99.90
12434;DHT22;6281;49.038;8.372;2022-11-20T03:16:11;7.20;99.90
12434;DHT22;6281;49.038;8.372;2022-11-20T03:18:38;7.20;99.90
12434;DHT22;6281;49.038;8.372;2022-11-20T03:21:06;7.10;99.90
12434;DHT22;6281;49.038;8.372;2022-11-20T03:23:34;7.20;99.90
12434;DHT22;6281;49.038;8.372;2022-11-20T03:26:13;7.20;99.90
12434;DHT22;6281;49.038;8.372;2022-11-20T03:28:41;7.20;99.90
12434;DHT22;6281;49.038;8.372;2022-11-20T03:31:11;7.20;99.90
12434;DHT22;6281;49.038;8.372;2022-11-20T03:33:38;7.20;99.90
12434;DHT22;6281;49.038;8.372;2022-11-20T03:36:07;7.20;99.90
12434;DHT22;6281;49.038;8.372;2022-11-20T03:38:35;7.20;99.90
12434;DHT22;6281;49.038;8.372;2022-11-20T03:41:04;7.20;99.90
12434;DHT22;6281;49.038;8.372;2022-11-20T03:43:31;7.20;99.90
12434;DHT22;6281;49.038;8.372;2022-11-20T03:45:59;7.20;99.90
12434;DHT22;6281;49.038;8.372;2022-11-20T03:48:28;7.20;99.90
12434;DHT22;6281;49.038;8.372;2022-11-20T03:51:07;7.30;99.90
12434;DHT22;6281;49.038;8.372;2022-11-20T03:53:34;7.20;99.90
12434;DHT22;6281;49.038;8.372;2022-11-20T03:56:01;7.20;99.90
12434;DHT22;6281;49.038;8.372;2022-11-20T03:58:28;7.20;99.90
12434;DHT22;6281;49.038;8.372;2022-11-20T04:00:55;7.20;99.90
12434;DHT22;6281;49.038;8.372;2022-11-20T04:03:22;7.20;99.90
12434;DHT22;6281;49.038;8.372;2022-11-20T04:05:51;7.20;99.90
12434;DHT22;6281;49.038;8.372;2022-11-20T04:08:17;7.20;99.90
12434;DHT22;6281;49.038;8.372;2022-11-20T04:10:44;7.20;99.90
12434;DHT22;6281;49.038;8.372;2022-11-20T04:13:11;7.20;99.90
12434;DHT22;6281;49.038;8.372;2022-11-20T04:15:38;7.30;99.90
12434;DHT22;6281;49.038;8.372;2022-11-20T04:18:05;7.30;99.90
12434;DHT22;6281;49.038;8.372;2022-11-20T04:20:32;7.30;99.90
12434;DHT22;6281;49.038;8.372;2022-11-20T04:23:01;7.30;99.90
12434;DHT22;6281;49.038;8.372;2022-11-20T04:25:28;7.30;99.90
12434;DHT22;6281;49.038;8.372;2022-11-20T04:27:55;7.30;99.90
12434;DHT22;6281;49.038;8.372;2022-11-20T04:30:22;7.30;99.90
12434;DHT22;6281;49.038;8.372;2022-11-20T04:32:49;7.30;99.90
12434;DHT22;6281;49.038;8.372;2022-11-20T04:35:16;7.40;99.90
12434;DHT22;6281;49.038;8.372;2022-11-20T04:37:42;7.50;99.90
12434;DHT22;6281;49.038;8.372;2022-11-20T04:40:12;7.50;99.90
12434;DHT22;6281;49.038;8.372;2022-11-20T04:42:39;7.40;99.90
12434;DHT22;6281;49.038;8.372;2022-11-20T04:45:06;7.50;99.90
12434;DHT22;6281;49.038;8.372;2022-11-20T04:47:33;7.40;99.90
12434;DHT22;6281;49.038;8.372;2022-11-20T04:50:00;7.40;99.90
12434;DHT22;6281;49.038;8.372;2022-11-20T04:52:27;7.40;99.90
12434;DHT22;6281;49.038;8.372;2022-11-20T04:54:54;7.40;99.90
12434;DHT22;6281;49.038;8.372;2022-11-20T04:57:23;7.40;99.90
12434;DHT22;6281;49.038;8.372;2022-11-20T04:59:50;7.40;99.90
12434;DHT22;6281;49.038;8.372;2022-11-20T05:02:17;7.40;99.90
12434;DHT22;6281;49.038;8.372;2022-11-20T05:04:44;7.40;99.90
12434;DHT22;6281;49.038;8.372;2022-11-20T05:07:11;7.40;99.90
12434;DHT22;6281;49.038;8.372;2022-11-20T05:09:38;7.30;99.90
12434;DHT22;6281;49.038;8.372;2022-11-20T05:12:07;7.40;99.90
12434;DHT22;6281;49.038;8.372;2022-11-20T05:14:35;7.30;99.90
12434;DHT22;6281;49.038;8.372;2022-11-20T05:17:02;7.40;99.90
12434;DHT22;6281;49.038;8.372;2022-11-20T05:19:29;7.40;99.90
12434;DHT22;6281;49.038;8.372;2022-11-20T05:21:56;7.30;99.90
12434;DHT22;6281;49.038;8.372;2022-11-20T05:24:23;7.20;99.90
12434;DHT22;6281;49.038;8.372;2022-11-20T05:26:50;7.30;99.90
12434;DHT22;6281;49.038;8.372;2022-11-20T05:29:16;7.30;99.90
12434;DHT22;6281;49.038;8.372;2022-11-20T05:31:45;7.20;99.90
12434;DHT22;6281;49.038;8.372;2022-11-20T05:34:12;7.30;99.90
12434;DHT22;6281;49.038;8.372;2022-11-20T05:36:39;7.30;99.90
12434;DHT22;6281;49.038;8.372;2022-11-20T05:39:05;7.30;99.90
12434;DHT22;6281;49.038;8.372;2022-11-20T05:41:33;7.20;99.90
12434;DHT22;6281;49.038;8.372;2022-11-20T05:44:00;7.30;99.90
12434;DHT22;6281;49.038;8.372;2022-11-20T05:46:26;7.30;99.90
12434;DHT22;6281;49.038;8.372;2022-11-20T05:48:55;7.20;99.90
12434;DHT22;6281;49.038;8.372;2022-11-20T05:51:23;7.20;99.90
12434;DHT22;6281;49.038;8.372;2022-11-20T05:53:50;7.20;99.90
12434;DHT22;6281;49.038;8.372;2022-11-20T05:56:19;7.20;99.90
12434;DHT22;6281;49.038;8.372;2022-11-20T05:58:46;7.20;99.90
12434;DHT22;6281;49.038;8.372;2022-11-20T06:01:17;7.20;99.90
12434;DHT22;6281;49.038;8.372;2022-11-20T06:03:44;7.20;99.90
12434;DHT22;6281;49.038;8.372;2022-11-20T06:06:14;7.20;99.90
12434;DHT22;6281;49.038;8.372;2022-11-20T06:08:41;7.20;99.90
12434;DHT22;6281;49.038;8.372;2022-11-20T06:11:10;7.20;99.90
12434;DHT22;6281;49.038;8.372;2022-11-20T06:13:48;7.20;99.90
12434;DHT22;6281;49.038;8.372;2022-11-20T06:16:17;7.20;99.90
12434;DHT22;6281;49.038;8.372;2022-11-20T06:18:44;7.20;99.90
12434;DHT22;6281;49.038;8.372;2022-11-20T06:21:15;7.10;99.90
12434;DHT22;6281;49.038;8.372;2022-11-20T06:23:42;7.20;99.90
12434;DHT22;6281;49.038;8.372;2022-11-20T06:26:12;7.20;99.90
12434;DHT22;6281;49.038;8.372;2022-11-20T06:28:39;7.10;99.90
12434;DHT22;6281;49.038;8.372;2022-11-20T06:31:07;7.10;99.90
12434;DHT22;6281;49.038;8.372;2022-11-20T06:33:34;7.10;99.90
12434;DHT22;6281;49.038;8.372;2022-11-20T06:36:01;7.10;99.90
12434;DHT22;6281;49.038;8.372;2022-11-20T06:38:30;7.10;99.90
12434;DHT22;6281;49.038;8.372;2022-11-20T06:40:57;7.20;99.90
12434;DHT22;6281;49.038;8.372;2022-11-20T06:43:24;7.20;99.90
12434;DHT22;6281;49.038;8.372;2022-11-20T06:45:52;7.20;99.90
12434;DHT22;6281;49.038;8.372;2022-11-20T06:48:19;7.20;99.90
12434;DHT22;6281;49.038;8.372;2022-11-20T06:50:46;7.20;99.90
12434;DHT22;6281;49.038;8.372;2022-11-20T06:53:13;7.20;99.90
12434;DHT22;6281;49.038;8.372;2022-11-20T06:55:43;7.20;99.90
12434;DHT22;6281;49.038;8.372;2022-11-20T06:58:10;7.20;99.90
12434;DHT22;6281;49.038;8.372;2022-11-20T07:00:37;7.20;99.90
12434;DHT22;6281;49.038;8.372;2022-11-20T07:03:05;7.20;99.90
12434;DHT22;6281;49.038;8.372;2022-11-20T07:05:32;7.20;99.90
12434;DHT22;6281;49.038;8.372;2022-11-20T07:07:59;7.20;99.90
12434;DHT22;6281;49.038;8.372;2022-11-20T07:10:26;7.30;99.90
12434;DHT22;6281;49.038;8.372;2022-11-20T07:12:55;7.20;99.90
12434;DHT22;6281;49.038;8.372;2022-11-20T07:15:23;7.20;99.90
12434;DHT22;6281;49.038;8.372;2022-11-20T07:17:51;7.20;99.90
12434;DHT22;6281;49.038;8.372;2022-11-20T07:20:18;7.20;99.90
12434;DHT22;6281;49.038;8.372;2022-11-20T07:22:44;7.10;99.90
12434;DHT22;6281;49.038;8.372;2022-11-20T07:25:11;7.20;99.90
12434;DHT22;6281;49.038;8.372;2022-11-20T07:27:38;7.10;99.90
12434;DHT22;6281;49.038;8.372;2022-11-20T07:30:07;7.10;99.90
12434;DHT22;6281;49.038;8.372;2022-11-20T07:32:34;7.00;99.90
12434;DHT22;6281;49.038;8.372;2022-11-20T07:35:01;7.00;99.90
12434;DHT22;6281;49.038;8.372;2022-11-20T07:37:28;7.00;99.90
12434;DHT22;6281;49.038;8.372;2022-11-20T07:39:55;6.90;99.90
12434;DHT22;6281;49.038;8.372;2022-11-20T07:42:22;7.00;99.90
12434;DHT22;6281;49.038;8.372;2022-11-20T07:44:48;7.00;99.90
12434;DHT22;6281;49.038;8.372;2022-11-20T07:47:17;7.00;99.90
12434;DHT22;6281;49.038;8.372;2022-11-20T07:49:44;7.00;99.90
12434;DHT22;6281;49.038;8.372;2022-11-20T07:52:11;7.00;99.90
12434;DHT22;6281;49.038;8.372;2022-11-20T07:54:38;7.00;99.90
12434;DHT22;6281;49.038;8.372;2022-11-20T07:57:05;6.90;99.90
12434;DHT22;6281;49.038;8.372;2022-11-20T07:59:31;6.80;99.90
12434;DHT22;6281;49.038;8.372;2022-11-20T08:01:58;6.90;99.90
12434;DHT22;6281;49.038;8.372;2022-11-20T08:04:27;6.90;99.90
12434;DHT22;6281;49.038;8.372;2022-11-20T08:06:53;6.90;99.90
12434;DHT22;6281;49.038;8.372;2022-11-20T08:09:20;6.90;99.90
12434;DHT22;6281;49.038;8.372;2022-11-20T08:11:47;7.00;99.90
12434;DHT22;6281;49.038;8.372;2022-11-20T08:14:31;7.00;99.90
12434;DHT22;6281;49.038;8.372;2022-11-20T08:16:58;7.00;99.90
12434;DHT22;6281;49.038;8.372;2022-11-20T08:19:27;7.00;99.90
12434;DHT22;6281;49.038;8.372;2022-11-20T08:21:55;7.10;99.90
12434;DHT22;6281;49.038;8.372;2022-11-20T08:24:22;7.10;99.90
12434;DHT22;6281;49.038;8.372;2022-11-20T08:26:57;7.10;99.90
12434;DHT22;6281;49.038;8.372;2022-11-20T08:29:24;7.20;99.90
12434;DHT22;6281;49.038;8.372;2022-11-20T08:31:51;7.10;99.90
12434;DHT22;6281;49.038;8.372;2022-11-20T08:34:18;7.10;99.90
12434;DHT22;6281;49.038;8.372;2022-11-20T08:36:46;7.20;99.90
12434;DHT22;6281;49.038;8.372;2022-11-20T08:39:14;7.20;99.90
12434;DHT22;6281;49.038;8.372;2022-11-20T08:41:41;7.20;99.90
12434;DHT22;6281;49.038;8.372;2022-11-20T08:44:10;7.20;99.90
12434;DHT22;6281;49.038;8.372;2022-11-20T08:46:38;7.20;99.90
12434;DHT22;6281;49.038;8.372;2022-11-20T08:49:07;7.20;99.90
12434;DHT22;6281;49.038;8.372;2022-11-20T08:51:35;7.30;99.90
12434;DHT22;6281;49.038;8.372;2022-11-20T08:54:04;7.30;99.90
12434;DHT22;6281;49.038;8.372;2022-11-20T08:56:32;7.30;99.90
12434;DHT22;6281;49.038;8.372;2022-11-20T08:58:59;7.40;99.90
12434;DHT22;6281;49.038;8.372;2022-11-20T09:01:26;7.40;99.90
12434;DHT22;6281;49.038;8.372;2022-11-20T09:03:56;7.30;99.90
12434;DHT22;6281;49.038;8.372;2022-11-20T09:06:25;7.40;99.90
12434;DHT22;6281;49.038;8.372;2022-11-20T09:08:52;7.40;99.90
12434;DHT22;6281;49.038;8.372;2022-11-20T09:11:20;7.40;99.90
12434;DHT22;6281;49.038;8.372;2022-11-20T09:13:47;7.40;99.90
12434;DHT22;6281;49.038;8.372;2022-11-20T09:16:14;7.50;99.90
12434;DHT22;6281;49.038;8.372;2022-11-20T09:18:41;7.50;99.90
12434;DHT22;6281;49.038;8.372;2022-11-20T09:21:11;7.50;99.90
12434;DHT22;6281;49.038;8.372;2022-11-20T09:23:39;7.60;99.90
12434;DHT22;6281;49.038;8.372;2022-11-20T09:26:09;7.60;99.90
12434;DHT22;6281;49.038;8.372;2022-11-20T09:28:38;7.70;99.90
12434;DHT22;6281;49.038;8.372;2022-11-20T09:31:05;7.60;99.90
12434;DHT22;6281;49.038;8.372;2022-11-20T09:33:32;7.70;99.90
12434;DHT22;6281;49.038;8.372;2022-11-20T09:35:59;7.70;99.90
12434;DHT22;6281;49.038;8.372;2022-11-20T09:38:26;7.60;99.90
12434;DHT22;6281;49.038;8.372;2022-11-20T09:40:57;7.60;99.90
12434;DHT22;6281;49.038;8.372;2022-11-20T09:43:32;7.60;99.90
12434;DHT22;6281;49.038;8.372;2022-11-20T09:46:10;7.60;99.90
12434;DHT22;6281;49.038;8.372;2022-11-20T09:51:35;7.60;99.90
12434;DHT22;6281;49.038;8.372;2022-11-20T09:54:13;7.60;99.90
12434;DHT22;6281;49.038;8.372;2022-11-20T09:56:43;7.60;99.90
12434;DHT22;6281;49.038;8.372;2022-11-20T09:59:23;7.70;99.90
12434;DHT22;6281;49.038;8.372;2022-11-20T10:01:55;7.70;99.90
12434;DHT22;6281;49.038;8.372;2022-11-20T10:04:22;7.60;99.90
12434;DHT22;6281;49.038;8.372;2022-11-20T10:06:55;7.70;99.90
12434;DHT22;6281;49.038;8.372;2022-11-20T10:09:28;7.70;99.90
12434;DHT22;6281;49.038;8.372;2022-11-20T10:12:12;7.60;99.90
12434;DHT22;6281;49.038;8.372;2022-11-20T10:14:50;7.70;99.90
12434;DHT22;6281;49.038;8.372;2022-11-20T10:17:31;7.50;99.90
12434;DHT22;6281;49.038;8.372;2022-11-20T10:20:14;7.60;99.90
12434;DHT22;6281;49.038;8.372;2022-11-20T10:22:52;7.70;99.90
12434;DHT22;6281;49.038;8.372;2022-11-20T10:25:24;7.70;99.90
12434;DHT22;6281;49.038;8.372;2022-11-20T10:28:25;7.80;99.90
12434;DHT22;6281;49.038;8.372;2022-11-20T10:31:00;7.80;99.90
12434;DHT22;6281;49.038;8.372;2022-11-20T10:33:35;7.80;99.90
12434;DHT22;6281;49.038;8.372;2022-11-20T10:36:10;7.80;99.90
12434;DHT22;6281;49.038;8.372;2022-11-20T10:38:44;7.90;99.90
12434;DHT22;6281;49.038;8.372;2022-11-20T10:41:20;7.90;99.90
12434;DHT22;6281;49.038;8.372;2022-11-20T10:43:59;8.00;99.90
12434;DHT22;6281;49.038;8.372;2022-11-20T10:46:35;8.20;99.90
12434;DHT22;6281;49.038;8.372;2022-11-20T10:49:12;8.30;99.90
12434;DHT22;6281;49.038;8.372;2022-11-20T10:51:49;8.30;99.90
12434;DHT22;6281;49.038;8.372;2022-11-20T10:54:23;8.40;99.90
12434;DHT22;6281;49.038;8.372;2022-11-20T10:57:00;8.50;99.90
12434;DHT22;6281;49.038;8.372;2022-11-20T10:59:51;8.50;99.90
12434;DHT22;6281;49.038;8.372;2022-11-20T11:02:23;8.50;99.90
12434;DHT22;6281;49.038;8.372;2022-11-20T11:04:53;8.50;99.90
12434;DHT22;6281;49.038;8.372;2022-11-20T11:07:23;8.40;99.90
12434;DHT22;6281;49.038;8.372;2022-11-20T11:09:54;8.50;99.90
12434;DHT22;6281;49.038;8.372;2022-11-20T11:12:23;8.70;99.90
12434;DHT22;6281;49.038;8.372;2022-11-20T11:14:52;8.80;99.90
12434;DHT22;6281;49.038;8.372;2022-11-20T11:17:22;8.90;99.90
12434;DHT22;6281;49.038;8.372;2022-11-20T11:20:00;8.90;99.90
12434;DHT22;6281;49.038;8.372;2022-11-20T11:22:30;9.10;99.90
12434;DHT22;6281;49.038;8.372;2022-11-20T11:24:58;9.00;99.90
12434;DHT22;6281;49.038;8.372;2022-11-20T11:27:25;9.20;99.90
12434;DHT22;6281;49.038;8.372;2022-11-20T11:30:12;9.50;99.90
12434;DHT22;6281;49.038;8.372;2022-11-20T11:32:39;9.50;99.90
12434;DHT22;6281;49.038;8.372;2022-11-20T11:35:20;9.50;99.90
12434;DHT22;6281;49.038;8.372;2022-11-20T11:37:48;9.60;99.90
12434;DHT22;6281;49.038;8.372;2022-11-20T11:40:18;9.50;99.90
12434;DHT22;6281;49.038;8.372;2022-11-20T11:42:51;9.60;99.90
12434;DHT22;6281;49.038;8.372;2022-11-20T11:45:20;10.60;99.90
12434;DHT22;6281;49.038;8.372;2022-11-20T11:47:48;12.50;99.90
12434;DHT22;6281;49.038;8.372;2022-11-20T11:50:21;10.90;99.90
12434;DHT22;6281;49.038;8.372;2022-11-20T11:52:54;10.60;99.90
12434;DHT22;6281;49.038;8.372;2022-11-20T11:55:29;10.60;99.90
12434;DHT22;6281;49.038;8.372;2022-11-20T11:58:02;10.90;99.90
12434;DHT22;6281;49.038;8.372;2022-11-20T12:00:35;12.40;99.90
12434;DHT22;6281;49.038;8.372;2022-11-20T12:03:09;12.90;99.90
12434;DHT22;6281;49.038;8.372;2022-11-20T12:05:42;12.80;99.90
12434;DHT22;6281;49.038;8.372;2022-11-20T12:08:16;13.40;99.90
12434;DHT22;6281;49.038;8.372;2022-11-20T12:10:48;12.90;99.90
12434;DHT22;6281;49.038;8.372;2022-11-20T12:13:25;12.70;99.90
12434;DHT22;6281;49.038;8.372;2022-11-20T12:15:58;10.80;99.90
12434;DHT22;6281;49.038;8.372;2022-11-20T12:18:25;11.70;99.90
12434;DHT22;6281;49.038;8.372;2022-11-20T12:21:04;11.80;99.90
12434;DHT22;6281;49.038;8.372;2022-11-20T12:23:41;10.90;99.90
12434;DHT22;6281;49.038;8.372;2022-11-20T12:26:16;10.80;99.90
12434;DHT22;6281;49.038;8.372;2022-11-20T12:28:55;11.80;99.90
12434;DHT22;6281;49.038;8.372;2022-11-20T12:31:42;10.40;99.90
12434;DHT22;6281;49.038;8.372;2022-11-20T12:34:43;12.60;99.90
12434;DHT22;6281;49.038;8.372;2022-11-20T12:37:21;13.20;99.90
12434;DHT22;6281;49.038;8.372;2022-11-20T12:39:50;13.00;99.90
12434;DHT22;6281;49.038;8.372;2022-11-20T12:42:29;12.90;99.90
12434;DHT22;6281;49.038;8.372;2022-11-20T12:48:30;12.00;99.90
12434;DHT22;6281;49.038;8.372;2022-11-20T12:51:15;12.30;99.90
12434;DHT22;6281;49.038;8.372;2022-11-20T12:53:52;12.00;99.90
12434;DHT22;6281;49.038;8.372;2022-11-20T12:56:30;12.30;99.90
12434;DHT22;6281;49.038;8.372;2022-11-20T12:59:16;12.40;99.90
12434;DHT22;6281;49.038;8.372;2022-11-20T13:01:50;12.70;99.90
12434;DHT22;6281;49.038;8.372;2022-11-20T13:04:32;12.20;99.90
12434;DHT22;6281;49.038;8.372;2022-11-20T13:07:06;12.00;99.90
12434;DHT22;6281;49.038;8.372;2022-11-20T13:09:39;12.00;99.90
12434;DHT22;6281;49.038;8.372;2022-11-20T13:12:12;11.70;99.90
12434;DHT22;6281;49.038;8.372;2022-11-20T13:14:45;11.10;99.90
12434;DHT22;6281;49.038;8.372;2022-11-20T13:17:19;10.50;99.90
12434;DHT22;6281;49.038;8.372;2022-11-20T13:19:51;10.30;99.90
12434;DHT22;6281;49.038;8.372;2022-11-20T13:22:24;10.20;99.90
12434;DHT22;6281;49.038;8.372;2022-11-20T13:24:53;10.20;99.90
12434;DHT22;6281;49.038;8.372;2022-11-20T13:27:21;10.10;99.90
12434;DHT22;6281;49.038;8.372;2022-11-20T13:30:13;10.10;99.90
12434;DHT22;6281;49.038;8.372;2022-11-20T13:32:53;9.90;99.90
12434;DHT22;6281;49.038;8.372;2022-11-20T13:35:31;9.90;99.90
12434;DHT22;6281;49.038;8.372;2022-11-20T13:38:06;9.90;99.90
12434;DHT22;6281;49.038;8.372;2022-11-20T13:40:37;9.80;99.90
12434;DHT22;6281;49.038;8.372;2022-11-20T13:43:15;9.90;99.90
12434;DHT22;6281;49.038;8.372;2022-11-20T13:45:42;10.00;99.90
12434;DHT22;6281;49.038;8.372;2022-11-20T13:48:22;10.00;99.90
12434;DHT22;6281;49.038;8.372;2022-11-20T13:50:58;10.00;99.90
12434;DHT22;6281;49.038;8.372;2022-11-20T13:53:44;10.00;99.90
12434;DHT22;6281;49.038;8.372;2022-11-20T13:56:21;9.70;99.90
12434;DHT22;6281;49.038;8.372;2022-11-20T13:58:59;9.70;99.90
12434;DHT22;6281;49.038;8.372;2022-11-20T14:01:30;9.70;99.90
12434;DHT22;6281;49.038;8.372;2022-11-20T14:03:58;9.60;99.90
12434;DHT22;6281;49.038;8.372;2022-11-20T14:06:27;9.60;99.90
12434;DHT22;6281;49.038;8.372;2022-11-20T14:08:55;9.60;99.90
12434;DHT22;6281;49.038;8.372;2022-11-20T14:11:25;9.50;99.90
12434;DHT22;6281;49.038;8.372;2022-11-20T14:13:58;9.40;99.90
12434;DHT22;6281;49.038;8.372;2022-11-20T14:16:27;9.40;99.90
12434;DHT22;6281;49.038;8.372;2022-11-20T14:18:55;9.40;99.90
12434;DHT22;6281;49.038;8.372;2022-11-20T14:21:27;9.30;99.90
12434;DHT22;6281;49.038;8.372;2022-11-20T14:24:03;9.40;99.90
12434;DHT22;6281;49.038;8.372;2022-11-20T14:26:32;9.40;99.90
12434;DHT22;6281;49.038;8.372;2022-11-20T14:29:00;9.40;99.90
12434;DHT22;6281;49.038;8.372;2022-11-20T14:31:28;9.30;99.90
12434;DHT22;6281;49.038;8.372;2022-11-20T14:33:56;9.30;99.90
12434;DHT22;6281;49.038;8.372;2022-11-20T14:36:24;9.20;99.90
12434;DHT22;6281;49.038;8.372;2022-11-20T14:38:52;9.20;99.90
12434;DHT22;6281;49.038;8.372;2022-11-20T14:41:21;9.20;99.90
12434;DHT22;6281;49.038;8.372;2022-11-20T14:43:53;9.20;99.90
12434;DHT22;6281;49.038;8.372;2022-11-20T14:46:21;9.20;99.90
12434;DHT22;6281;49.038;8.372;2022-11-20T14:48:50;9.20;99.90
12434;DHT22;6281;49.038;8.372;2022-11-20T14:51:29;9.20;99.90
12434;DHT22;6281;49.038;8.372;2022-11-20T14:54:08;9.20;99.90
12434;DHT22;6281;49.038;8.372;2022-11-20T14:56:35;9.20;99.90
12434;DHT22;6281;49.038;8.372;2022-11-20T14:59:03;9.10;99.90
12434;DHT22;6281;49.038;8.372;2022-11-20T15:01:32;9.10;99.90
12434;DHT22;6281;49.038;8.372;2022-11-20T15:04:01;9.20;99.90
12434;DHT22;6281;49.038;8.372;2022-11-20T15:06:28;9.00;99.90
12434;DHT22;6281;49.038;8.372;2022-11-20T15:08:57;9.00;99.90
12434;DHT22;6281;49.038;8.372;2022-11-20T15:11:28;8.90;99.90
12434;DHT22;6281;49.038;8.372;2022-11-20T15:13:57;8.90;99.90
12434;DHT22;6281;49.038;8.372;2022-11-20T15:16:26;8.90;99.90
12434;DHT22;6281;49.038;8.372;2022-11-20T15:18:53;8.90;99.90
12434;DHT22;6281;49.038;8.372;2022-11-20T15:21:21;8.90;99.90
12434;DHT22;6281;49.038;8.372;2022-11-20T15:23:48;8.70;99.90
12434;DHT22;6281;49.038;8.372;2022-11-20T15:26:20;8.90;99.90
12434;DHT22;6281;49.038;8.372;2022-11-20T15:28:49;8.90;99.90
12434;DHT22;6281;49.038;8.372;2022-11-20T15:31:18;8.80;99.90
12434;DHT22;6281;49.038;8.372;2022-11-20T15:33:47;8.80;99.90
12434;DHT22;6281;49.038;8.372;2022-11-20T15:36:14;8.80;99.90
12434;DHT22;6281;49.038;8.372;2022-11-20T15:38:41;8.70;99.90
12434;DHT22;6281;49.038;8.372;2022-11-20T15:41:08;8.80;99.90
12434;DHT22;6281;49.038;8.372;2022-11-20T15:43:36;8.70;99.90
12434;DHT22;6281;49.038;8.372;2022-11-20T15:46:05;8.70;99.90
12434;DHT22;6281;49.038;8.372;2022-11-20T15:48:37;8.70;99.90
12434;DHT22;6281;49.038;8.372;2022-11-20T15:51:16;8.70;99.90
12434;DHT22;6281;49.038;8.372;2022-11-20T15:53:46;8.70;99.90
12434;DHT22;6281;49.038;8.372;2022-11-20T15:56:14;8.70;99.90
12434;DHT22;6281;49.038;8.372;2022-11-20T15:58:41;8.70;99.90
12434;DHT22;6281;49.038;8.372;2022-11-20T16:01:10;8.80;99.90
12434;DHT22;6281;49.038;8.372;2022-11-20T16:03:38;8.80;99.90
12434;DHT22;6281;49.038;8.372;2022-11-20T16:06:06;8.80;99.90
12434;DHT22;6281;49.038;8.372;2022-11-20T16:08:33;8.70;99.90
12434;DHT22;6281;49.038;8.372;2022-11-20T16:11:00;8.70;99.90
12434;DHT22;6281;49.038;8.372;2022-11-20T16:13:28;8.70;99.90
12434;DHT22;6281;49.038;8.372;2022-11-20T16:16:19;8.70;99.90
12434;DHT22;6281;49.038;8.372;2022-11-20T16:18:47;8.70;99.90
12434;DHT22;6281;49.038;8.372;2022-11-20T16:21:16;8.70;99.90
12434;DHT22;6281;49.038;8.372;2022-11-20T16:23:43;8.70;99.90